Ragan Village, North Carolina
Current Conditions -  °F | °C
As of 8:54 AM on Monday 24 Nov 2014 (Local Time) from KAKH Reporting Station
Overcast Overcast  
Wind Chill: 63°   Ceiling: 1700
Heat Index: 63°   Visibility: 10mi
Dew Point: 56°   Wind: 9mph
Humidity: 78%   Direction: 210°SSW
Pressure: 29.8"   Gusts: NA
Location:  35.2631°N, 81.1487°W
Report Text: KAKH 241354Z AUTO 21008KT 10SM BKN017 OVC023 17/13 A2980 RMK AO2 SLP086 T01720133
Loading
Personal Weather Stations






























Interactive Weather Map New forecast layout! Learn more

10-Day Weather Forecast

Advertisements
Track Severe Weather on mobile